Relatórios de METAR próximas

 

LPAR - Alverca, Portugal
Distance from station: SO 47km
Actualizado: 14/08/2018 20:00
Céu Limpo
Céu Limpo
 Vento de NO
Vento: NO 26 km/h
Temperatura: 23°C
Ponto de Orvalho: 15°C
Humidade: 61%
Barómetro: 1015 hPa
Resumo: Céu Limpo
Visibilidade: greater than 10 km
2018/08/14 19:00 LPAR 141900Z 31014KT CAVOK 23/15 Q1015
LPPT - Lisbon/Portela, Portugal
Distance from station: SO 61km
Actualizado: 14/08/2018 20:30
Few Clouds
Few Clouds
 Vento de NO
Vento: NO 26 km/h
Temperatura: 20°C
Ponto de Orvalho: 16°C
Humidade: 78%
Barómetro: 1016 hPa
Nuvens: Few Clouds
Visibilidade: 10 km
Cloud details: Few Clouds 610 m
2018/08/14 19:30 LPPT 141930Z 31014KT 9999 FEW020 20/16 Q1016
 
LPMT - Montijo (por-Afb, Portugal
Distance from station: SO 62km
Actualizado: 14/08/2018 19:00
NÃO Actual
Céu Limpo
Céu Limpo
 Vento de O
Vento: O 13 km/h
Temperatura: 26°C
Ponto de Orvalho: 17°C
Humidade: 58%
Barómetro: 1015 hPa
Resumo: Céu Limpo
Visibilidade: greater than 10 km
2018/08/14 18:00 LPMT 141800Z 28007KT 240V310 CAVOK 26/17 Q1015
LPST - Sintra/Granja (a, Portugal
Distance from station: OSO 72km
Actualizado: 14/08/2018 17:00
NÃO Actual
Few Clouds
Few Clouds
 Vento de NO
Vento: NO 20 km/h
Temperatura: 22°C
Ponto de Orvalho: 15°C
Humidade: 65%
Barómetro: 1018 hPa
Nuvens: Few Clouds
Visibilidade: 10 km
Cloud details: Few Clouds 549 m
2018/08/14 16:00 LPST 141600Z 31011KT 9999 FEW018 22/15 Q1018
 
LPMR - Monte Real(Por-A, Portugal
Distance from station: NNO 80km
Actualizado: 14/08/2018 20:00
Céu Limpo
Céu Limpo
 Vento de NO
Vento: NO 11 km/h
Temperatura: 20°C
Ponto de Orvalho: 16°C
Humidade: 78%
Barómetro: 1017 hPa
Resumo: Céu Limpo
Visibilidade: greater than 10 km
2018/08/14 19:00 LPMR 141900Z 31006KT CAVOK 20/16 Q1017
LPBJ - Beja (por/Ger-Af, Portugal
Distance from station: SSE 139km
Actualizado: 14/08/2018 20:00
Céu Limpo
Céu Limpo
 Vento de ONO
Vento: ONO 24 km/h
Temperatura: 29°C
Índice de Calor: 28°C
Ponto de Orvalho: 14°C
Humidade: 40%
Barómetro: 1016 hPa
Resumo: Céu Limpo
Visibilidade: greater than 10 km
2018/08/14 19:00 LPBJ 141900Z 29013KT CAVOK 29/14 Q1016